sensor_id;sensor_type;location;lat;lon;timestamp;temperature;humidity
12049;DHT22;6085;49.452;8.502;2023-04-03T00:03:51;1.90;99.90
12049;DHT22;6085;49.452;8.502;2023-04-03T00:07:53;1.90;99.90
12049;DHT22;6085;49.452;8.502;2023-04-03T00:11:55;1.80;99.90
12049;DHT22;6085;49.452;8.502;2023-04-03T00:15:57;1.80;99.90
12049;DHT22;6085;49.452;8.502;2023-04-03T00:20:00;1.80;99.90
12049;DHT22;6085;49.452;8.502;2023-04-03T00:24:02;1.70;99.90
12049;DHT22;6085;49.452;8.502;2023-04-03T00:28:05;1.60;99.90
12049;DHT22;6085;49.452;8.502;2023-04-03T00:32:06;1.60;99.90
12049;DHT22;6085;49.452;8.502;2023-04-03T00:36:11;1.70;99.90
12049;DHT22;6085;49.452;8.502;2023-04-03T00:40:15;1.70;99.90
12049;DHT22;6085;49.452;8.502;2023-04-03T00:44:22;1.70;99.90
12049;DHT22;6085;49.452;8.502;2023-04-03T00:48:27;1.60;99.90
12049;DHT22;6085;49.452;8.502;2023-04-03T00:52:31;1.50;99.90
12049;DHT22;6085;49.452;8.502;2023-04-03T00:56:33;1.50;99.90
12049;DHT22;6085;49.452;8.502;2023-04-03T01:00:38;1.50;99.90
12049;DHT22;6085;49.452;8.502;2023-04-03T01:04:43;1.60;99.90
12049;DHT22;6085;49.452;8.502;2023-04-03T01:08:48;1.60;99.90
12049;DHT22;6085;49.452;8.502;2023-04-03T01:12:51;1.60;99.90
12049;DHT22;6085;49.452;8.502;2023-04-03T01:16:54;1.50;99.90
12049;DHT22;6085;49.452;8.502;2023-04-03T01:21:19;1.50;99.90
12049;DHT22;6085;49.452;8.502;2023-04-03T01:25:29;1.50;99.90
12049;DHT22;6085;49.452;8.502;2023-04-03T01:29:31;1.50;99.90
12049;DHT22;6085;49.452;8.502;2023-04-03T01:33:34;1.50;99.90
12049;DHT22;6085;49.452;8.502;2023-04-03T01:37:37;1.50;99.90
12049;DHT22;6085;49.452;8.502;2023-04-03T01:41:38;1.50;99.90
12049;DHT22;6085;49.452;8.502;2023-04-03T01:45:40;1.40;99.90
12049;DHT22;6085;49.452;8.502;2023-04-03T01:49:44;1.40;99.90
12049;DHT22;6085;49.452;8.502;2023-04-03T01:53:46;1.40;99.90
12049;DHT22;6085;49.452;8.502;2023-04-03T01:57:48;1.30;99.90
12049;DHT22;6085;49.452;8.502;2023-04-03T02:01:50;1.30;99.90
12049;DHT22;6085;49.452;8.502;2023-04-03T02:05:53;1.30;99.90
12049;DHT22;6085;49.452;8.502;2023-04-03T02:09:55;1.30;99.90
12049;DHT22;6085;49.452;8.502;2023-04-03T02:13:57;1.30;99.90
12049;DHT22;6085;49.452;8.502;2023-04-03T02:17:59;1.20;99.90
12049;DHT22;6085;49.452;8.502;2023-04-03T02:22:02;1.20;99.90
12049;DHT22;6085;49.452;8.502;2023-04-03T02:26:06;1.20;99.90
12049;DHT22;6085;49.452;8.502;2023-04-03T02:30:09;1.00;99.90
12049;DHT22;6085;49.452;8.502;2023-04-03T02:34:11;0.90;99.90
12049;DHT22;6085;49.452;8.502;2023-04-03T02:38:14;0.80;99.90
12049;DHT22;6085;49.452;8.502;2023-04-03T02:42:16;0.70;99.90
12049;DHT22;6085;49.452;8.502;2023-04-03T02:46:18;0.70;99.90
12049;DHT22;6085;49.452;8.502;2023-04-03T02:50:20;0.80;99.90
12049;DHT22;6085;49.452;8.502;2023-04-03T02:54:24;0.70;99.90
12049;DHT22;6085;49.452;8.502;2023-04-03T02:58:29;0.50;99.90
12049;DHT22;6085;49.452;8.502;2023-04-03T03:02:30;0.40;99.90
12049;DHT22;6085;49.452;8.502;2023-04-03T03:06:32;0.30;99.90
12049;DHT22;6085;49.452;8.502;2023-04-03T03:10:36;0.30;99.90
12049;DHT22;6085;49.452;8.502;2023-04-03T03:14:38;0.30;99.90
12049;DHT22;6085;49.452;8.502;2023-04-03T03:18:40;0.40;99.90
12049;DHT22;6085;49.452;8.502;2023-04-03T03:22:42;0.30;99.90
12049;DHT22;6085;49.452;8.502;2023-04-03T03:26:45;0.20;99.90
12049;DHT22;6085;49.452;8.502;2023-04-03T03:30:47;0.20;99.90
12049;DHT22;6085;49.452;8.502;2023-04-03T03:34:49;0.20;99.90
12049;DHT22;6085;49.452;8.502;2023-04-03T03:38:51;0.00;99.90
12049;DHT22;6085;49.452;8.502;2023-04-03T03:42:54;-0.10;99.90
12049;DHT22;6085;49.452;8.502;2023-04-03T03:46:56;-0.30;99.90
12049;DHT22;6085;49.452;8.502;2023-04-03T03:50:58;-0.40;99.90
12049;DHT22;6085;49.452;8.502;2023-04-03T03:55:00;-0.50;99.90
12049;DHT22;6085;49.452;8.502;2023-04-03T03:59:04;-0.50;99.90
12049;DHT22;6085;49.452;8.502;2023-04-03T04:03:06;-0.60;99.90
12049;DHT22;6085;49.452;8.502;2023-04-03T04:07:08;-0.70;99.90
12049;DHT22;6085;49.452;8.502;2023-04-03T04:11:10;-0.80;99.90
12049;DHT22;6085;49.452;8.502;2023-04-03T04:15:13;-0.90;99.90
12049;DHT22;6085;49.452;8.502;2023-04-03T04:19:15;-1.00;99.90
12049;DHT22;6085;49.452;8.502;2023-04-03T04:23:18;-1.10;99.90
12049;DHT22;6085;49.452;8.502;2023-04-03T04:27:20;-1.10;99.90
12049;DHT22;6085;49.452;8.502;2023-04-03T04:31:23;-1.20;99.90
12049;DHT22;6085;49.452;8.502;2023-04-03T04:35:25;-1.20;99.90
12049;DHT22;6085;49.452;8.502;2023-04-03T04:39:27;-1.30;99.90
12049;DHT22;6085;49.452;8.502;2023-04-03T04:43:29;-1.30;99.90
12049;DHT22;6085;49.452;8.502;2023-04-03T04:47:32;-1.40;99.90
12049;DHT22;6085;49.452;8.502;2023-04-03T04:51:34;-1.40;99.90
12049;DHT22;6085;49.452;8.502;2023-04-03T04:55:36;-1.40;99.90
12049;DHT22;6085;49.452;8.502;2023-04-03T04:59:38;-1.30;99.90
12049;DHT22;6085;49.452;8.502;2023-04-03T05:03:41;-1.20;99.90
12049;DHT22;6085;49.452;8.502;2023-04-03T05:07:43;-1.10;99.90
12049;DHT22;6085;49.452;8.502;2023-04-03T05:11:45;-1.00;99.90
12049;DHT22;6085;49.452;8.502;2023-04-03T05:15:47;-0.80;99.90
12049;DHT22;6085;49.452;8.502;2023-04-03T05:19:50;-0.70;99.90
12049;DHT22;6085;49.452;8.502;2023-04-03T05:23:52;-0.60;99.90
12049;DHT22;6085;49.452;8.502;2023-04-03T05:27:54;-0.40;99.90
12049;DHT22;6085;49.452;8.502;2023-04-03T05:31:56;-0.10;99.90
12049;DHT22;6085;49.452;8.502;2023-04-03T05:36:04;0.30;99.90
12049;DHT22;6085;49.452;8.502;2023-04-03T05:40:07;1.20;99.90
12049;DHT22;6085;49.452;8.502;2023-04-03T05:44:09;2.40;99.90
12049;DHT22;6085;49.452;8.502;2023-04-03T05:48:11;3.30;99.90
12049;DHT22;6085;49.452;8.502;2023-04-03T05:52:19;3.70;99.90
12049;DHT22;6085;49.452;8.502;2023-04-03T05:56:22;4.00;99.90
12049;DHT22;6085;49.452;8.502;2023-04-03T06:00:24;4.30;99.90
12049;DHT22;6085;49.452;8.502;2023-04-03T06:04:26;4.90;99.90
12049;DHT22;6085;49.452;8.502;2023-04-03T06:08:29;5.70;99.90
12049;DHT22;6085;49.452;8.502;2023-04-03T06:12:31;6.40;99.90
12049;DHT22;6085;49.452;8.502;2023-04-03T06:16:34;6.30;99.90
12049;DHT22;6085;49.452;8.502;2023-04-03T06:20:36;5.40;99.90
12049;DHT22;6085;49.452;8.502;2023-04-03T06:24:39;4.60;99.90
12049;DHT22;6085;49.452;8.502;2023-04-03T06:28:41;4.30;99.90
12049;DHT22;6085;49.452;8.502;2023-04-03T06:32:43;4.10;99.90
12049;DHT22;6085;49.452;8.502;2023-04-03T06:36:45;4.10;99.90
12049;DHT22;6085;49.452;8.502;2023-04-03T06:40:49;4.10;99.90
12049;DHT22;6085;49.452;8.502;2023-04-03T06:44:52;4.20;99.90
12049;DHT22;6085;49.452;8.502;2023-04-03T06:48:54;4.30;99.90
12049;DHT22;6085;49.452;8.502;2023-04-03T06:52:56;4.40;99.90
12049;DHT22;6085;49.452;8.502;2023-04-03T06:56:59;4.50;99.90
12049;DHT22;6085;49.452;8.502;2023-04-03T07:01:02;4.70;99.90
12049;DHT22;6085;49.452;8.502;2023-04-03T07:05:04;4.90;99.90
12049;DHT22;6085;49.452;8.502;2023-04-03T07:09:07;5.10;99.90
12049;DHT22;6085;49.452;8.502;2023-04-03T07:13:10;5.30;99.90
12049;DHT22;6085;49.452;8.502;2023-04-03T07:17:14;5.40;99.90
12049;DHT22;6085;49.452;8.502;2023-04-03T07:21:18;5.70;99.90
12049;DHT22;6085;49.452;8.502;2023-04-03T07:25:20;8.00;99.90
12049;DHT22;6085;49.452;8.502;2023-04-03T07:29:23;9.50;99.90
12049;DHT22;6085;49.452;8.502;2023-04-03T07:33:25;10.70;99.90
12049;DHT22;6085;49.452;8.502;2023-04-03T07:37:27;12.00;99.90
12049;DHT22;6085;49.452;8.502;2023-04-03T07:41:29;13.50;99.90
12049;DHT22;6085;49.452;8.502;2023-04-03T07:45:34;14.50;99.90
12049;DHT22;6085;49.452;8.502;2023-04-03T07:49:36;15.70;97.20
12049;DHT22;6085;49.452;8.502;2023-04-03T07:53:40;17.10;93.90
12049;DHT22;6085;49.452;8.502;2023-04-03T07:57:42;17.60;90.20
12049;DHT22;6085;49.452;8.502;2023-04-03T08:01:46;17.20;87.50
12049;DHT22;6085;49.452;8.502;2023-04-03T08:05:48;17.10;85.70
12049;DHT22;6085;49.452;8.502;2023-04-03T08:09:51;17.50;81.40
12049;DHT22;6085;49.452;8.502;2023-04-03T08:13:53;17.10;81.40
12049;DHT22;6085;49.452;8.502;2023-04-03T08:17:57;17.50;78.30
12049;DHT22;6085;49.452;8.502;2023-04-03T08:21:59;17.60;74.60
12049;DHT22;6085;49.452;8.502;2023-04-03T08:26:07;17.90;73.70
12049;DHT22;6085;49.452;8.502;2023-04-03T08:30:11;17.90;71.40
12049;DHT22;6085;49.452;8.502;2023-04-03T08:34:14;18.10;69.50
12049;DHT22;6085;49.452;8.502;2023-04-03T08:38:16;18.00;68.50
12049;DHT22;6085;49.452;8.502;2023-04-03T08:42:29;18.70;64.40
12049;DHT22;6085;49.452;8.502;2023-04-03T08:46:52;18.80;60.50
12049;DHT22;6085;49.452;8.502;2023-04-03T08:50:59;18.50;62.00
12049;DHT22;6085;49.452;8.502;2023-04-03T08:55:04;19.10;59.60
12049;DHT22;6085;49.452;8.502;2023-04-03T08:59:12;19.80;56.30
12049;DHT22;6085;49.452;8.502;2023-04-03T09:03:18;19.10;55.40
12049;DHT22;6085;49.452;8.502;2023-04-03T09:07:29;19.00;56.60
12049;DHT22;6085;49.452;8.502;2023-04-03T09:11:42;20.10;54.20
12049;DHT22;6085;49.452;8.502;2023-04-03T09:15:46;20.60;50.90
12049;DHT22;6085;49.452;8.502;2023-04-03T09:19:54;19.90;51.60
12049;DHT22;6085;49.452;8.502;2023-04-03T09:24:01;19.50;51.10
12049;DHT22;6085;49.452;8.502;2023-04-03T09:28:04;18.90;52.60
12049;DHT22;6085;49.452;8.502;2023-04-03T09:32:19;18.60;51.80
12049;DHT22;6085;49.452;8.502;2023-04-03T09:36:39;18.40;51.70
12049;DHT22;6085;49.452;8.502;2023-04-03T09:40:44;20.00;50.00
12049;DHT22;6085;49.452;8.502;2023-04-03T09:44:54;19.90;50.30
12049;DHT22;6085;49.452;8.502;2023-04-03T09:48:59;18.70;51.00
12049;DHT22;6085;49.452;8.502;2023-04-03T09:53:05;19.60;49.30
12049;DHT22;6085;49.452;8.502;2023-04-03T09:57:12;18.70;49.10
12049;DHT22;6085;49.452;8.502;2023-04-03T10:01:23;16.30;52.80
12049;DHT22;6085;49.452;8.502;2023-04-03T10:05:32;15.60;54.40
12049;DHT22;6085;49.452;8.502;2023-04-03T10:09:34;14.10;54.70
12049;DHT22;6085;49.452;8.502;2023-04-03T10:13:50;14.10;55.20
12049;DHT22;6085;49.452;8.502;2023-04-03T10:17:57;14.70;53.50
12049;DHT22;6085;49.452;8.502;2023-04-03T10:22:03;12.90;55.40
12049;DHT22;6085;49.452;8.502;2023-04-03T10:26:14;12.50;57.00
12049;DHT22;6085;49.452;8.502;2023-04-03T10:30:29;12.90;56.30
12049;DHT22;6085;49.452;8.502;2023-04-03T10:34:35;12.20;57.90
12049;DHT22;6085;49.452;8.502;2023-04-03T10:38:46;11.40;59.90
12049;DHT22;6085;49.452;8.502;2023-04-03T10:42:55;10.80;61.60
12049;DHT22;6085;49.452;8.502;2023-04-03T10:47:05;10.60;61.30
12049;DHT22;6085;49.452;8.502;2023-04-03T10:51:20;10.70;62.60
12049;DHT22;6085;49.452;8.502;2023-04-03T10:55:31;12.80;61.40
12049;DHT22;6085;49.452;8.502;2023-04-03T10:59:37;13.40;57.50
12049;DHT22;6085;49.452;8.502;2023-04-03T11:03:44;11.90;60.20
12049;DHT22;6085;49.452;8.502;2023-04-03T11:07:48;11.30;62.00
12049;DHT22;6085;49.452;8.502;2023-04-03T11:11:55;11.70;62.80
12049;DHT22;6085;49.452;8.502;2023-04-03T11:15:59;12.80;61.30
12049;DHT22;6085;49.452;8.502;2023-04-03T11:20:10;12.20;60.10
12049;DHT22;6085;49.452;8.502;2023-04-03T11:24:20;11.70;62.20
12049;DHT22;6085;49.452;8.502;2023-04-03T11:28:23;12.70;61.70
12049;DHT22;6085;49.452;8.502;2023-04-03T11:32:54;12.20;61.50
12049;DHT22;6085;49.452;8.502;2023-04-03T11:37:05;11.80;63.40
12049;DHT22;6085;49.452;8.502;2023-04-03T11:41:13;11.80;60.10
12049;DHT22;6085;49.452;8.502;2023-04-03T11:45:24;11.80;61.70
12049;DHT22;6085;49.452;8.502;2023-04-03T11:49:56;12.00;64.10
12049;DHT22;6085;49.452;8.502;2023-04-03T11:54:45;11.80;62.30
12049;DHT22;6085;49.452;8.502;2023-04-03T11:59:15;11.40;63.70
12049;DHT22;6085;49.452;8.502;2023-04-03T12:03:56;11.50;63.70
12049;DHT22;6085;49.452;8.502;2023-04-03T12:08:21;11.50;63.60
12049;DHT22;6085;49.452;8.502;2023-04-03T12:12:35;11.70;63.10
12049;DHT22;6085;49.452;8.502;2023-04-03T12:16:43;11.20;64.60
12049;DHT22;6085;49.452;8.502;2023-04-03T12:20:53;11.70;64.70
12049;DHT22;6085;49.452;8.502;2023-04-03T12:24:55;12.80;64.70
12049;DHT22;6085;49.452;8.502;2023-04-03T12:28:58;13.20;58.90
12049;DHT22;6085;49.452;8.502;2023-04-03T12:33:27;12.50;60.70
12049;DHT22;6085;49.452;8.502;2023-04-03T12:37:57;11.70;61.40
12049;DHT22;6085;49.452;8.502;2023-04-03T12:42:15;11.30;64.40
12049;DHT22;6085;49.452;8.502;2023-04-03T12:46:22;11.00;63.90
12049;DHT22;6085;49.452;8.502;2023-04-03T12:50:27;10.60;65.00
12049;DHT22;6085;49.452;8.502;2023-04-03T12:54:32;10.40;64.30
12049;DHT22;6085;49.452;8.502;2023-04-03T12:58:36;11.30;65.10
12049;DHT22;6085;49.452;8.502;2023-04-03T13:02:44;12.80;62.70
12049;DHT22;6085;49.452;8.502;2023-04-03T13:06:46;12.50;61.80
12049;DHT22;6085;49.452;8.502;2023-04-03T13:10:54;11.90;62.30
12049;DHT22;6085;49.452;8.502;2023-04-03T13:14:58;11.80;64.10
12049;DHT22;6085;49.452;8.502;2023-04-03T13:19:03;12.60;64.00
12049;DHT22;6085;49.452;8.502;2023-04-03T13:23:07;12.90;60.20
12049;DHT22;6085;49.452;8.502;2023-04-03T13:27:11;12.60;62.60
12049;DHT22;6085;49.452;8.502;2023-04-03T13:31:19;13.00;61.40
12049;DHT22;6085;49.452;8.502;2023-04-03T13:35:37;13.00;58.90
12049;DHT22;6085;49.452;8.502;2023-04-03T13:39:39;12.90;60.00
12049;DHT22;6085;49.452;8.502;2023-04-03T13:43:42;12.80;60.60
12049;DHT22;6085;49.452;8.502;2023-04-03T13:47:45;11.60;60.60
12049;DHT22;6085;49.452;8.502;2023-04-03T13:51:49;10.80;62.80
12049;DHT22;6085;49.452;8.502;2023-04-03T13:55:58;10.60;65.70
12049;DHT22;6085;49.452;8.502;2023-04-03T14:00:19;10.60;63.80
12049;DHT22;6085;49.452;8.502;2023-04-03T14:04:24;10.70;63.30
12049;DHT22;6085;49.452;8.502;2023-04-03T14:08:28;11.30;63.60
12049;DHT22;6085;49.452;8.502;2023-04-03T14:12:33;10.90;64.50
12049;DHT22;6085;49.452;8.502;2023-04-03T14:16:39;10.30;62.40
12049;DHT22;6085;49.452;8.502;2023-04-03T14:20:43;10.00;63.80
12049;DHT22;6085;49.452;8.502;2023-04-03T14:24:46;10.70;62.10
12049;DHT22;6085;49.452;8.502;2023-04-03T14:28:50;11.70;61.60
12049;DHT22;6085;49.452;8.502;2023-04-03T14:32:53;12.40;59.70
12049;DHT22;6085;49.452;8.502;2023-04-03T14:36:55;12.60;58.80
12049;DHT22;6085;49.452;8.502;2023-04-03T14:40:58;11.60;61.00
12049;DHT22;6085;49.452;8.502;2023-04-03T14:45:02;10.80;59.90
12049;DHT22;6085;49.452;8.502;2023-04-03T14:49:08;10.20;60.20
12049;DHT22;6085;49.452;8.502;2023-04-03T14:53:14;10.10;59.40
12049;DHT22;6085;49.452;8.502;2023-04-03T14:57:18;10.30;59.30
12049;DHT22;6085;49.452;8.502;2023-04-03T15:01:21;10.50;59.20
12049;DHT22;6085;49.452;8.502;2023-04-03T15:05:22;10.70;58.80
12049;DHT22;6085;49.452;8.502;2023-04-03T15:09:27;10.60;59.60
12049;DHT22;6085;49.452;8.502;2023-04-03T15:13:30;10.40;59.20
12049;DHT22;6085;49.452;8.502;2023-04-03T15:17:34;10.50;58.40
12049;DHT22;6085;49.452;8.502;2023-04-03T15:21:36;10.70;58.90
12049;DHT22;6085;49.452;8.502;2023-04-03T15:25:39;11.10;59.50
12049;DHT22;6085;49.452;8.502;2023-04-03T15:29:43;11.50;56.70
12049;DHT22;6085;49.452;8.502;2023-04-03T15:33:45;11.20;58.20
12049;DHT22;6085;49.452;8.502;2023-04-03T15:37:47;11.20;58.50
12049;DHT22;6085;49.452;8.502;2023-04-03T15:41:49;11.10;59.20
12049;DHT22;6085;49.452;8.502;2023-04-03T15:45:56;11.00;59.70
12049;DHT22;6085;49.452;8.502;2023-04-03T15:49:59;10.60;56.90
12049;DHT22;6085;49.452;8.502;2023-04-03T15:54:01;10.20;57.90
12049;DHT22;6085;49.452;8.502;2023-04-03T15:58:04;9.70;58.50
12049;DHT22;6085;49.452;8.502;2023-04-03T16:02:09;9.40;61.00
12049;DHT22;6085;49.452;8.502;2023-04-03T16:06:13;9.20;61.40
12049;DHT22;6085;49.452;8.502;2023-04-03T16:10:17;9.10;61.60
12049;DHT22;6085;49.452;8.502;2023-04-03T16:14:19;8.90;62.70
12049;DHT22;6085;49.452;8.502;2023-04-03T16:18:22;8.90;61.20
12049;DHT22;6085;49.452;8.502;2023-04-03T16:22:25;8.70;62.10
12049;DHT22;6085;49.452;8.502;2023-04-03T16:26:28;8.70;60.40
12049;DHT22;6085;49.452;8.502;2023-04-03T16:30:30;8.50;61.70
12049;DHT22;6085;49.452;8.502;2023-04-03T16:34:34;8.40;62.10
12049;DHT22;6085;49.452;8.502;2023-04-03T16:38:36;8.30;64.60
12049;DHT22;6085;49.452;8.502;2023-04-03T16:42:38;8.20;63.60
12049;DHT22;6085;49.452;8.502;2023-04-03T16:46:40;8.10;63.40
12049;DHT22;6085;49.452;8.502;2023-04-03T16:50:47;8.10;64.20
12049;DHT22;6085;49.452;8.502;2023-04-03T16:54:51;8.00;63.30
12049;DHT22;6085;49.452;8.502;2023-04-03T16:58:55;7.90;65.10
12049;DHT22;6085;49.452;8.502;2023-04-03T17:02:57;7.80;64.50
12049;DHT22;6085;49.452;8.502;2023-04-03T17:07:01;7.70;64.00
12049;DHT22;6085;49.452;8.502;2023-04-03T17:11:06;7.60;64.60
12049;DHT22;6085;49.452;8.502;2023-04-03T17:15:09;7.50;65.90
12049;DHT22;6085;49.452;8.502;2023-04-03T17:19:11;7.30;65.40
12049;DHT22;6085;49.452;8.502;2023-04-03T17:23:14;7.20;66.50
12049;DHT22;6085;49.452;8.502;2023-04-03T17:27:16;7.10;67.60
12049;DHT22;6085;49.452;8.502;2023-04-03T17:31:19;6.90;69.40
12049;DHT22;6085;49.452;8.502;2023-04-03T17:35:21;6.80;70.00
12049;DHT22;6085;49.452;8.502;2023-04-03T17:39:24;6.70;70.70
12049;DHT22;6085;49.452;8.502;2023-04-03T17:43:27;6.60;71.10
12049;DHT22;6085;49.452;8.502;2023-04-03T17:47:28;6.50;71.20
12049;DHT22;6085;49.452;8.502;2023-04-03T17:51:30;6.30;72.10
12049;DHT22;6085;49.452;8.502;2023-04-03T17:55:36;6.10;73.40
12049;DHT22;6085;49.452;8.502;2023-04-03T17:59:38;6.00;73.20
12049;DHT22;6085;49.452;8.502;2023-04-03T18:03:41;5.90;74.20
12049;DHT22;6085;49.452;8.502;2023-04-03T18:07:43;5.80;74.90
12049;DHT22;6085;49.452;8.502;2023-04-03T18:11:47;5.80;74.00
12049;DHT22;6085;49.452;8.502;2023-04-03T18:15:49;5.70;74.80
12049;DHT22;6085;49.452;8.502;2023-04-03T18:19:51;5.60;76.00
12049;DHT22;6085;49.452;8.502;2023-04-03T18:23:54;5.30;79.00
12049;DHT22;6085;49.452;8.502;2023-04-03T18:27:58;5.10;80.10
12049;DHT22;6085;49.452;8.502;2023-04-03T18:32:07;5.00;82.90
12049;DHT22;6085;49.452;8.502;2023-04-03T18:36:10;4.90;83.90
12049;DHT22;6085;49.452;8.502;2023-04-03T18:40:13;4.80;85.50
12049;DHT22;6085;49.452;8.502;2023-04-03T18:44:18;4.50;88.20
12049;DHT22;6085;49.452;8.502;2023-04-03T18:48:21;4.40;90.00
12049;DHT22;6085;49.452;8.502;2023-04-03T18:52:24;4.20;91.70
12049;DHT22;6085;49.452;8.502;2023-04-03T18:56:26;4.10;93.00
12049;DHT22;6085;49.452;8.502;2023-04-03T19:00:30;4.10;94.10
12049;DHT22;6085;49.452;8.502;2023-04-03T19:04:33;4.10;95.00
12049;DHT22;6085;49.452;8.502;2023-04-03T19:08:35;4.00;96.00
12049;DHT22;6085;49.452;8.502;2023-04-03T19:12:37;4.10;96.20
12049;DHT22;6085;49.452;8.502;2023-04-03T19:16:41;4.00;97.10
12049;DHT22;6085;49.452;8.502;2023-04-03T19:20:42;3.90;98.50
12049;DHT22;6085;49.452;8.502;2023-04-03T19:24:44;3.70;99.90
12049;DHT22;6085;49.452;8.502;2023-04-03T19:28:46;3.60;99.90
12049;DHT22;6085;49.452;8.502;2023-04-03T19:32:51;3.40;99.90
12049;DHT22;6085;49.452;8.502;2023-04-03T19:36:53;3.20;99.90
12049;DHT22;6085;49.452;8.502;2023-04-03T19:40:55;3.20;99.90
12049;DHT22;6085;49.452;8.502;2023-04-03T19:44:57;3.20;99.90
12049;DHT22;6085;49.452;8.502;2023-04-03T19:49:00;3.10;99.90
12049;DHT22;6085;49.452;8.502;2023-04-03T19:53:02;3.20;99.90
12049;DHT22;6085;49.452;8.502;2023-04-03T19:57:05;3.20;99.90
12049;DHT22;6085;49.452;8.502;2023-04-03T20:01:07;3.30;99.90
12049;DHT22;6085;49.452;8.502;2023-04-03T20:05:11;3.30;99.90
12049;DHT22;6085;49.452;8.502;2023-04-03T20:09:13;3.10;99.90
12049;DHT22;6085;49.452;8.502;2023-04-03T20:13:15;3.20;99.90
12049;DHT22;6085;49.452;8.502;2023-04-03T20:17:17;3.20;99.90
12049;DHT22;6085;49.452;8.502;2023-04-03T20:21:25;3.10;99.90
12049;DHT22;6085;49.452;8.502;2023-04-03T20:25:27;3.20;99.90
12049;DHT22;6085;49.452;8.502;2023-04-03T20:29:29;3.10;99.90
12049;DHT22;6085;49.452;8.502;2023-04-03T20:33:31;3.10;99.90
12049;DHT22;6085;49.452;8.502;2023-04-03T20:37:36;2.90;99.90
12049;DHT22;6085;49.452;8.502;2023-04-03T20:41:41;2.80;99.90
12049;DHT22;6085;49.452;8.502;2023-04-03T20:45:43;2.70;99.90
12049;DHT22;6085;49.452;8.502;2023-04-03T20:49:45;2.80;99.90
12049;DHT22;6085;49.452;8.502;2023-04-03T20:53:49;2.70;99.90
12049;DHT22;6085;49.452;8.502;2023-04-03T20:57:51;2.60;99.90
12049;DHT22;6085;49.452;8.502;2023-04-03T21:01:53;2.60;99.90
12049;DHT22;6085;49.452;8.502;2023-04-03T21:19:22;2.10;99.90
12049;DHT22;6085;49.452;8.502;2023-04-03T21:23:25;2.20;99.90
12049;DHT22;6085;49.452;8.502;2023-04-03T21:27:28;2.20;99.90
12049;DHT22;6085;49.452;8.502;2023-04-03T21:31:51;2.10;99.90
12049;DHT22;6085;49.452;8.502;2023-04-03T21:35:54;2.10;99.90
12049;DHT22;6085;49.452;8.502;2023-04-03T21:39:59;2.10;99.90
12049;DHT22;6085;49.452;8.502;2023-04-03T21:44:01;2.10;99.90
12049;DHT22;6085;49.452;8.502;2023-04-03T21:48:03;2.10;99.90
12049;DHT22;6085;49.452;8.502;2023-04-03T21:52:07;2.00;99.90
12049;DHT22;6085;49.452;8.502;2023-04-03T21:56:09;2.00;99.90
12049;DHT22;6085;49.452;8.502;2023-04-03T22:00:11;2.00;99.90
12049;DHT22;6085;49.452;8.502;2023-04-03T22:04:14;1.90;99.90
12049;DHT22;6085;49.452;8.502;2023-04-03T22:08:18;1.80;99.90
12049;DHT22;6085;49.452;8.502;2023-04-03T22:12:20;1.80;99.90
12049;DHT22;6085;49.452;8.502;2023-04-03T22:16:23;1.80;99.90
12049;DHT22;6085;49.452;8.502;2023-04-03T22:20:25;1.70;99.90
12049;DHT22;6085;49.452;8.502;2023-04-03T22:24:28;1.80;99.90
12049;DHT22;6085;49.452;8.502;2023-04-03T22:28:33;1.90;99.90
12049;DHT22;6085;49.452;8.502;2023-04-03T22:32:35;1.90;99.90
12049;DHT22;6085;49.452;8.502;2023-04-03T22:36:36;1.80;99.90
12049;DHT22;6085;49.452;8.502;2023-04-03T22:40:40;1.70;99.90
12049;DHT22;6085;49.452;8.502;2023-04-03T22:44:42;1.50;99.90
12049;DHT22;6085;49.452;8.502;2023-04-03T22:48:44;1.40;99.90
12049;DHT22;6085;49.452;8.502;2023-04-03T22:52:46;1.50;99.90
12049;DHT22;6085;49.452;8.502;2023-04-03T22:56:49;1.40;99.90
12049;DHT22;6085;49.452;8.502;2023-04-03T23:00:52;1.40;99.90
12049;DHT22;6085;49.452;8.502;2023-04-03T23:04:54;1.40;99.90
12049;DHT22;6085;49.452;8.502;2023-04-03T23:08:56;1.50;99.90
12049;DHT22;6085;49.452;8.502;2023-04-03T23:12:59;1.40;99.90
12049;DHT22;6085;49.452;8.502;2023-04-03T23:17:02;1.60;99.90
12049;DHT22;6085;49.452;8.502;2023-04-03T23:21:05;1.50;99.90
12049;DHT22;6085;49.452;8.502;2023-04-03T23:25:07;1.30;99.90
12049;DHT22;6085;49.452;8.502;2023-04-03T23:29:11;1.10;99.90
12049;DHT22;6085;49.452;8.502;2023-04-03T23:33:13;0.90;99.90
12049;DHT22;6085;49.452;8.502;2023-04-03T23:37:15;1.10;99.90
12049;DHT22;6085;49.452;8.502;2023-04-03T23:41:17;1.20;99.90
12049;DHT22;6085;49.452;8.502;2023-04-03T23:45:20;1.30;99.90
12049;DHT22;6085;49.452;8.502;2023-04-03T23:49:22;1.10;99.90
12049;DHT22;6085;49.452;8.502;2023-04-03T23:53:24;1.20;99.90
12049;DHT22;6085;49.452;8.502;2023-04-03T23:57:26;1.30;99.90
